createdAt,value
2023-04-10T00:02:54.247Z,19.67
2023-04-10T00:06:28.191Z,15.20
2023-04-10T00:10:01.783Z,14.57
2023-04-10T00:13:33.677Z,13.10
2023-04-10T00:17:06.651Z,14.30
2023-04-10T00:20:38.554Z,14.65
2023-04-10T00:24:11.106Z,13.05
2023-04-10T00:27:45.584Z,13.60
2023-04-10T00:31:19.774Z,11.90
2023-04-10T00:34:51.610Z,12.27
2023-04-10T00:38:23.874Z,13.50
2023-04-10T00:41:58.649Z,12.75
2023-04-10T00:45:30.860Z,13.98
2023-04-10T00:49:04.630Z,13.48
2023-04-10T00:52:36.522Z,13.53
2023-04-10T00:56:09.954Z,14.95
2023-04-10T00:59:41.881Z,17.20
2023-04-10T01:03:16.437Z,14.07
2023-04-10T01:07:09.666Z,14.05
2023-04-10T01:11:03.125Z,12.70
2023-04-10T01:15:04.554Z,12.53
2023-04-10T01:18:43.893Z,12.57
2023-04-10T01:22:17.603Z,10.35
2023-04-10T01:26:07.270Z,9.98
2023-04-10T01:29:45.557Z,10.60
2023-04-10T01:33:21.312Z,11.15
2023-04-10T01:36:59.572Z,10.73
2023-04-10T01:40:31.676Z,10.93
2023-04-10T01:44:04.954Z,11.63
2023-04-10T01:47:36.874Z,11.45
2023-04-10T01:51:09.818Z,12.60
2023-04-10T01:54:43.398Z,11.32
2023-04-10T01:58:15.824Z,12.63
2023-04-10T02:01:47.627Z,14.00
2023-04-10T02:05:20.452Z,13.07
2023-04-10T02:08:59.409Z,13.40
2023-04-10T02:12:40.129Z,12.80
2023-04-10T02:16:17.421Z,12.73
2023-04-10T02:19:52.840Z,12.70
2023-04-10T02:23:24.739Z,11.50
2023-04-10T02:26:57.845Z,12.17
2023-04-10T02:30:29.648Z,12.32
2023-04-10T02:34:01.656Z,11.45
2023-04-10T02:37:33.580Z,11.50
2023-04-10T02:41:06.175Z,12.40
2023-04-10T02:44:39.535Z,13.55
2023-04-10T02:48:11.605Z,10.38
2023-04-10T02:51:43.572Z,11.77
2023-04-10T02:55:15.812Z,10.73
2023-04-10T02:58:47.800Z,12.60
2023-04-10T03:02:19.960Z,11.33
2023-04-10T03:05:51.828Z,10.55
2023-04-10T03:09:23.954Z,10.10
2023-04-10T03:12:56.096Z,10.40
2023-04-10T03:16:27.891Z,10.07
2023-04-10T03:19:59.894Z,8.68
2023-04-10T03:23:32.335Z,9.20
2023-04-10T03:27:04.472Z,9.20
2023-04-10T03:30:37.224Z,8.35
2023-04-10T03:34:09.563Z,10.00
2023-04-10T03:37:42.462Z,9.50
2023-04-10T03:41:14.649Z,9.00
2023-04-10T03:44:46.350Z,7.35
2023-04-10T03:48:18.542Z,8.93
2023-04-10T03:51:50.358Z,8.47
2023-04-10T03:55:22.809Z,7.63
2023-04-10T03:58:54.491Z,9.23
2023-04-10T04:02:26.595Z,8.40
2023-04-10T04:05:58.589Z,9.60
2023-04-10T04:09:30.732Z,9.32
2023-04-10T04:13:02.452Z,9.80
2023-04-10T04:16:34.614Z,9.98
2023-04-10T04:20:07.242Z,9.43
2023-04-10T04:23:39.208Z,8.63
2023-04-10T04:27:11.814Z,8.70
2023-04-10T04:30:44.046Z,9.20
2023-04-10T04:34:16.462Z,8.13
2023-04-10T04:37:48.723Z,7.60
2023-04-10T04:41:20.879Z,9.05
2023-04-10T04:44:53.254Z,8.75
2023-04-10T04:48:25.644Z,8.80
2023-04-10T04:51:57.893Z,8.75
2023-04-10T04:55:30.393Z,11.10
2023-04-10T04:59:02.620Z,11.93
2023-04-10T05:02:34.586Z,9.80
2023-04-10T05:06:07.152Z,8.93
2023-04-10T05:09:38.887Z,10.77
2023-04-10T05:13:11.032Z,9.67
2023-04-10T05:16:42.810Z,10.13
2023-04-10T05:20:14.865Z,9.45
2023-04-10T05:23:46.523Z,11.70
2023-04-10T05:27:18.662Z,11.05
2023-04-10T05:30:50.484Z,10.43
2023-04-10T05:34:22.776Z,10.75
2023-04-10T05:37:54.653Z,11.00
2023-04-10T05:41:26.694Z,11.27
2023-04-10T05:44:58.543Z,11.27
2023-04-10T05:48:30.797Z,11.50
2023-04-10T05:52:02.540Z,11.52
2023-04-10T05:55:34.749Z,11.93
2023-04-10T05:59:06.646Z,11.13
2023-04-10T06:02:39.013Z,12.75
2023-04-10T06:06:10.982Z,12.07
2023-04-10T06:09:43.022Z,12.98
2023-04-10T06:13:15.521Z,12.17
2023-04-10T06:16:47.529Z,12.15
2023-04-10T06:20:20.024Z,10.07
2023-04-10T06:23:51.930Z,10.70
2023-04-10T06:27:24.277Z,8.95
2023-04-10T06:30:56.409Z,9.35
2023-04-10T06:34:28.431Z,9.85
2023-04-10T06:38:00.499Z,10.37
2023-04-10T06:41:32.546Z,9.73
2023-04-10T06:45:05.607Z,10.23
2023-04-10T06:48:37.698Z,10.60
2023-04-10T06:52:11.323Z,9.00
2023-04-10T06:55:43.541Z,9.38
2023-04-10T06:59:15.825Z,9.13
2023-04-10T07:02:47.808Z,8.57
2023-04-10T07:06:20.467Z,9.95
2023-04-10T07:09:52.661Z,9.10
2023-04-10T07:13:24.417Z,9.63
2023-04-10T07:16:56.432Z,9.00
2023-04-10T07:20:28.216Z,9.60
2023-04-10T07:24:00.370Z,9.35
2023-04-10T07:27:32.215Z,10.67
2023-04-10T07:31:04.600Z,10.40
2023-04-10T07:34:36.715Z,10.38
2023-04-10T07:38:08.762Z,11.02
2023-04-10T07:41:40.563Z,11.50
2023-04-10T07:45:12.704Z,12.10
2023-04-10T07:48:44.677Z,12.10
2023-04-10T07:52:16.890Z,11.32
2023-04-10T07:55:50.073Z,11.43
2023-04-10T07:59:21.840Z,10.77
2023-04-10T08:02:54.104Z,10.20
2023-04-10T08:06:26.265Z,10.55
2023-04-10T08:10:04.807Z,11.07
2023-04-10T08:13:40.501Z,9.87
2023-04-10T08:17:15.092Z,10.73
2023-04-10T08:20:47.377Z,9.80
2023-04-10T08:24:21.433Z,10.67
2023-04-10T08:27:53.800Z,8.60
2023-04-10T08:31:31.042Z,8.80
2023-04-10T08:35:03.485Z,9.05
2023-04-10T08:38:35.218Z,10.90
2023-04-10T08:42:08.044Z,9.33
2023-04-10T08:45:43.014Z,9.10
2023-04-10T08:49:45.941Z,8.68
2023-04-10T08:53:22.696Z,9.17
2023-04-10T08:56:56.125Z,9.80
2023-04-10T09:00:28.888Z,9.27
2023-04-10T09:04:01.433Z,8.82
2023-04-10T09:07:33.643Z,7.00
2023-04-10T09:11:07.659Z,6.77
2023-04-10T09:14:40.667Z,7.70
2023-04-10T09:18:12.685Z,6.70
2023-04-10T09:21:50.845Z,6.70
2023-04-10T09:25:33.550Z,7.17
2023-04-10T09:29:07.869Z,7.93
2023-04-10T09:32:43.527Z,7.75
2023-04-10T09:36:15.590Z,7.10
2023-04-10T09:39:47.447Z,7.20
2023-04-10T09:43:25.518Z,6.47
2023-04-10T09:46:58.338Z,5.82
2023-04-10T09:50:39.607Z,7.10
2023-04-10T09:54:12.086Z,6.97
2023-04-10T09:57:45.027Z,5.97
2023-04-10T10:01:17.266Z,6.15
2023-04-10T10:04:50.069Z,6.47
2023-04-10T10:08:22.262Z,6.33
2023-04-10T10:11:55.766Z,6.10
2023-04-10T10:15:39.067Z,6.32
2023-04-10T10:19:37.998Z,6.82
2023-04-10T10:23:10.027Z,6.27
2023-04-10T10:26:44.617Z,5.63
2023-04-10T10:30:29.682Z,6.82
2023-04-10T10:34:05.516Z,6.63
2023-04-10T10:37:37.839Z,6.13
2023-04-10T10:41:27.269Z,6.97
2023-04-10T10:45:18.241Z,5.72
2023-04-10T10:49:00.721Z,8.33
2023-04-10T10:52:57.779Z,8.97
2023-04-10T10:56:36.609Z,8.23
2023-04-10T11:00:09.174Z,8.68
2023-04-10T11:03:42.017Z,8.90
2023-04-10T11:07:15.872Z,8.97
2023-04-10T11:11:07.179Z,9.20
2023-04-10T11:14:40.957Z,8.80
2023-04-10T11:18:12.980Z,11.60
2023-04-10T11:21:57.286Z,10.17
2023-04-10T11:25:49.077Z,12.00
2023-04-10T11:29:27.296Z,12.95
2023-04-10T11:33:00.941Z,13.60
2023-04-10T11:36:41.882Z,13.37
2023-04-10T11:40:14.208Z,13.75
2023-04-10T11:43:46.333Z,14.80
2023-04-10T11:47:18.373Z,14.85
2023-04-10T11:50:50.922Z,14.80
2023-04-10T11:54:24.311Z,15.02
2023-04-10T11:57:56.654Z,14.77
2023-04-10T12:01:28.535Z,15.23
2023-04-10T12:05:00.809Z,14.33
2023-04-10T12:08:37.825Z,14.63
2023-04-10T12:12:09.685Z,11.82
2023-04-10T12:15:41.830Z,11.07
2023-04-10T12:19:15.070Z,11.40
2023-04-10T12:22:48.080Z,10.38
2023-04-10T12:26:20.988Z,10.50
2023-04-10T12:29:54.865Z,9.30
2023-04-10T12:33:26.821Z,8.37
2023-04-10T12:36:58.648Z,8.85
2023-04-10T12:40:30.875Z,8.40
2023-04-10T12:44:11.982Z,8.83
2023-04-10T12:47:48.895Z,9.50
2023-04-10T12:51:45.743Z,9.32
2023-04-10T12:55:19.986Z,7.43
2023-04-10T12:59:07.032Z,9.40
2023-04-10T13:02:40.504Z,8.90
2023-04-10T13:06:13.000Z,9.88
2023-04-10T13:09:44.993Z,8.48
2023-04-10T13:13:17.176Z,8.27
2023-04-10T13:16:49.237Z,7.83
2023-04-10T13:20:22.409Z,7.78
2023-04-10T13:23:57.981Z,6.85
2023-04-10T13:27:30.011Z,7.70
2023-04-10T13:31:02.489Z,8.27
2023-04-10T13:34:35.215Z,7.90
2023-04-10T13:38:07.494Z,10.88
2023-04-10T13:41:39.466Z,8.33
2023-04-10T13:45:11.781Z,8.73
2023-04-10T13:48:43.791Z,8.60
2023-04-10T13:52:15.728Z,8.60
2023-04-10T13:55:50.110Z,8.83
2023-04-10T13:59:22.206Z,8.88
2023-04-10T14:02:54.384Z,8.45
2023-04-10T14:06:27.245Z,8.80
2023-04-10T14:10:00.499Z,8.60
2023-04-10T14:13:32.945Z,7.75
2023-04-10T14:17:04.678Z,8.27
2023-04-10T14:20:36.986Z,10.30
2023-04-10T14:24:09.009Z,9.23
2023-04-10T14:27:40.729Z,8.93
2023-04-10T14:31:13.064Z,9.77
2023-04-10T14:34:44.786Z,9.17
2023-04-10T14:38:16.922Z,10.45
2023-04-10T14:41:48.556Z,9.90
2023-04-10T14:45:20.578Z,10.15
2023-04-10T14:48:52.396Z,10.40
2023-04-10T14:52:24.736Z,10.05
2023-04-10T14:55:56.433Z,8.80
2023-04-10T14:59:28.608Z,8.33
2023-04-10T15:03:00.740Z,8.40
2023-04-10T15:06:33.700Z,8.05
2023-04-10T15:10:06.201Z,9.50
2023-04-10T15:13:38.858Z,7.30
2023-04-10T15:17:10.964Z,8.50
2023-04-10T15:20:43.218Z,8.82
2023-04-10T15:24:15.517Z,8.32
2023-04-10T15:27:47.210Z,7.40
2023-04-10T15:31:22.570Z,7.13
2023-04-10T15:34:54.463Z,6.95
2023-04-10T15:38:28.698Z,6.32
2023-04-10T15:42:01.816Z,7.20
2023-04-10T15:45:35.685Z,6.40
2023-04-10T15:49:07.744Z,5.63
2023-04-10T15:52:39.530Z,5.05
2023-04-10T15:56:11.814Z,6.18
2023-04-10T15:59:43.484Z,5.53
2023-04-10T16:03:16.050Z,5.93
2023-04-10T16:06:48.000Z,5.75
2023-04-10T16:10:20.567Z,6.00
2023-04-10T16:13:52.221Z,5.77
2023-04-10T16:17:24.305Z,5.57
2023-04-10T16:20:56.196Z,5.45
2023-04-10T16:24:29.394Z,5.25
2023-04-10T16:28:02.284Z,5.30
2023-04-10T16:31:35.373Z,4.65
2023-04-10T16:35:07.976Z,5.93
2023-04-10T16:38:39.832Z,5.75
2023-04-10T16:42:12.098Z,4.83
2023-04-10T16:45:43.835Z,5.85
2023-04-10T16:49:15.875Z,4.55
2023-04-10T16:52:48.194Z,5.30
2023-04-10T16:56:20.060Z,5.17
2023-04-10T16:59:57.425Z,5.15
2023-04-10T17:03:29.507Z,5.80
2023-04-10T17:07:01.655Z,5.63
2023-04-10T17:10:33.677Z,5.20
2023-04-10T17:14:06.704Z,5.93
2023-04-10T17:17:39.038Z,6.57
2023-04-10T17:21:12.404Z,6.60
2023-04-10T17:24:45.037Z,8.43
2023-04-10T17:28:16.875Z,7.35
2023-04-10T17:31:49.073Z,7.47
2023-04-10T17:35:20.981Z,8.87
2023-04-10T17:38:54.182Z,8.50
2023-04-10T17:42:27.403Z,10.35
2023-04-10T17:45:59.304Z,11.23
2023-04-10T17:49:31.340Z,11.33
2023-04-10T17:53:03.456Z,9.30
2023-04-10T17:56:35.218Z,8.10
2023-04-10T18:00:08.922Z,8.98
2023-04-10T18:03:41.077Z,8.30
2023-04-10T18:07:13.041Z,9.03
2023-04-10T18:10:44.812Z,8.43
2023-04-10T18:14:16.920Z,8.40
2023-04-10T18:17:48.848Z,8.23
2023-04-10T18:21:20.963Z,9.10
2023-04-10T18:24:53.451Z,9.15
2023-04-10T18:28:26.348Z,9.30
2023-04-10T18:31:58.062Z,10.43
2023-04-10T18:35:31.438Z,13.15
2023-04-10T18:39:04.753Z,12.68
2023-04-10T18:42:36.788Z,14.17
2023-04-10T18:46:09.136Z,12.90
2023-04-10T18:49:41.247Z,13.02
2023-04-10T18:53:13.289Z,11.88
2023-04-10T18:56:45.447Z,13.60
2023-04-10T19:00:17.678Z,13.10
2023-04-10T19:03:52.325Z,12.90
2023-04-10T19:07:25.075Z,11.73
2023-04-10T19:10:56.898Z,12.57
2023-04-10T19:14:29.025Z,13.27
2023-04-10T19:18:00.827Z,13.82
2023-04-10T19:21:34.682Z,13.70
2023-04-10T19:25:07.279Z,13.27
2023-04-10T19:28:39.078Z,14.82
2023-04-10T19:32:11.085Z,14.53
2023-04-10T19:35:43.344Z,15.57
2023-04-10T19:39:15.193Z,18.10
2023-04-10T19:42:47.302Z,16.63
2023-04-10T19:46:20.846Z,16.73
2023-04-10T19:49:52.892Z,16.60
2023-04-10T19:53:24.681Z,17.35
2023-04-10T19:57:01.826Z,20.47
2023-04-10T20:00:33.978Z,17.20
2023-04-10T20:04:06.092Z,15.65
2023-04-10T20:07:38.339Z,16.40
2023-04-10T20:11:10.039Z,17.70
2023-04-10T20:14:44.885Z,19.67
2023-04-10T20:18:17.588Z,19.80
2023-04-10T20:21:49.283Z,18.73
2023-04-10T20:25:21.417Z,19.60
2023-04-10T20:28:53.949Z,21.23
2023-04-10T20:32:26.427Z,20.95
2023-04-10T20:35:58.347Z,20.30
2023-04-10T20:39:32.144Z,19.33
2023-04-10T20:43:03.991Z,21.38
2023-04-10T20:46:36.124Z,21.67
2023-04-10T20:50:09.734Z,20.40
2023-04-10T20:53:42.976Z,21.15
2023-04-10T20:57:15.415Z,21.90
2023-04-10T21:00:47.382Z,19.87
2023-04-10T21:04:20.193Z,20.35
2023-04-10T21:07:51.967Z,19.52
2023-04-10T21:11:25.615Z,22.03
2023-04-10T21:14:57.559Z,20.83
2023-04-10T21:18:29.584Z,20.17
2023-04-10T21:22:01.398Z,19.80
2023-04-10T21:25:36.213Z,18.97
2023-04-10T21:29:07.883Z,19.88
2023-04-10T21:32:39.864Z,19.08
2023-04-10T21:36:12.053Z,19.30
2023-04-10T21:39:44.063Z,17.80
2023-04-10T21:43:15.923Z,18.35
2023-04-10T21:46:48.098Z,17.65
2023-04-10T21:50:19.801Z,17.80
2023-04-10T21:53:51.785Z,17.25
2023-04-10T21:57:23.875Z,16.17
2023-04-10T22:00:55.756Z,17.03
2023-04-10T22:04:27.761Z,15.40
2023-04-10T22:07:59.473Z,16.23
2023-04-10T22:11:31.538Z,18.02
2023-04-10T22:15:04.060Z,16.57
2023-04-10T22:18:35.985Z,17.05
2023-04-10T22:22:08.267Z,15.93
2023-04-10T22:25:40.014Z,16.45
2023-04-10T22:29:15.617Z,15.97
2023-04-10T22:32:47.601Z,15.90
2023-04-10T22:36:19.391Z,16.50
2023-04-10T22:39:51.305Z,17.53
2023-04-10T22:43:23.001Z,17.75
2023-04-10T22:46:55.112Z,16.58
2023-04-10T22:50:27.002Z,18.30
2023-04-10T22:53:59.207Z,16.53
2023-04-10T22:57:31.101Z,17.85
2023-04-10T23:01:03.328Z,17.17
2023-04-10T23:04:35.113Z,17.23
2023-04-10T23:08:07.356Z,17.05
2023-04-10T23:11:39.251Z,16.63
2023-04-10T23:15:11.289Z,18.50
2023-04-10T23:18:43.144Z,17.38
2023-04-10T23:22:15.554Z,17.73
2023-04-10T23:25:47.546Z,17.50
2023-04-10T23:29:19.744Z,19.53
2023-04-10T23:32:51.492Z,17.48
2023-04-10T23:36:23.467Z,17.27
2023-04-10T23:39:55.196Z,17.67
2023-04-10T23:43:27.195Z,17.77
2023-04-10T23:46:59.053Z,18.10
2023-04-10T23:50:31.200Z,18.60
2023-04-10T23:54:02.942Z,19.00
2023-04-10T23:57:35.081Z,19.15
